Time;durP1;ratioP1;P1;durP2;ratioP2;P2;SDS_P1;SDS_P2;PMS_P1;PMS_P2;Temp;Humidity;BMP_temperature;BMP_pressure;BME280_temperature;BME280_humidity;BME280_pressure;Samples;Min_cycle;Max_cycle;Signal;HPM_P1;HPM_P2
2022/11/09 00:01:41;;;;;;;11.00;6.57;;;12.70;99.90;;;;;;5073836;28;20636;-80
2022/11/09 00:04:09;;;;;;;9.17;5.57;;;12.70;99.90;;;;;;5074166;28;20234;-78
2022/11/09 00:06:37;;;;;;;10.53;7.00;;;12.80;99.90;;;;;;5074607;28;20221;-79
2022/11/09 00:09:08;;;;;;;9.87;6.47;;;12.80;99.90;;;;;;5076620;28;20199;-79
2022/11/09 00:11:36;;;;;;;8.97;6.00;;;12.80;99.90;;;;;;5073191;28;20293;-79
2022/11/09 00:14:03;;;;;;;10.77;6.77;;;12.80;99.90;;;;;;5074798;28;20201;-79
2022/11/09 00:16:30;;;;;;;9.67;6.03;;;12.80;99.90;;;;;;5077205;28;20283;-81
2022/11/09 00:18:58;;;;;;;13.80;7.07;;;12.80;99.90;;;;;;5079085;28;20208;-79
2022/11/09 00:21:25;;;;;;;10.37;5.93;;;12.80;99.90;;;;;;5069430;28;20654;-79
2022/11/09 00:23:54;;;;;;;10.00;5.77;;;12.80;99.90;;;;;;5073244;28;20244;-78
2022/11/09 00:26:21;;;;;;;9.33;5.73;;;12.80;99.90;;;;;;5072673;28;20287;-79
2022/11/09 00:28:49;;;;;;;9.77;6.83;;;12.80;99.90;;;;;;5070194;28;20673;-79
2022/11/09 00:31:21;;;;;;;14.83;7.80;;;12.80;99.90;;;;;;5071022;28;20226;-78
2022/11/09 00:33:49;;;;;;;10.90;7.27;;;12.80;99.90;;;;;;5073359;28;20213;-78
2022/11/09 00:36:16;;;;;;;10.87;7.20;;;12.80;99.90;;;;;;5074695;28;20197;-78
2022/11/09 00:38:50;;;;;;;10.90;6.80;;;12.70;99.90;;;;;;5073537;28;20223;-79
2022/11/09 00:41:19;;;;;;;15.00;6.63;;;12.70;99.90;;;;;;5071434;28;20263;-79
2022/11/09 00:43:47;;;;;;;10.57;6.87;;;12.70;99.90;;;;;;5071353;28;20197;-79
2022/11/09 00:46:15;;;;;;;11.47;6.20;;;12.70;99.90;;;;;;5072285;28;20189;-78
2022/11/09 00:48:43;;;;;;;14.33;7.13;;;12.70;99.90;;;;;;5073260;28;20555;-79
2022/11/09 00:51:11;;;;;;;10.27;5.90;;;12.70;99.90;;;;;;5070061;28;20208;-78
2022/11/09 00:53:38;;;;;;;10.13;6.40;;;12.70;99.90;;;;;;5069165;28;20193;-79
2022/11/09 00:56:07;;;;;;;10.33;6.53;;;12.70;99.90;;;;;;5073711;28;20216;-77
2022/11/09 00:58:39;;;;;;;12.17;6.67;;;12.70;99.90;;;;;;5067919;28;20213;-78
2022/11/09 01:01:12;;;;;;;10.33;6.33;;;12.70;99.90;;;;;;5068038;28;20631;-79
2022/11/09 01:03:42;;;;;;;11.97;7.17;;;12.80;99.90;;;;;;5100337;28;20348;-79
2022/11/09 01:06:13;;;;;;;12.27;6.77;;;12.70;99.90;;;;;;5076114;28;20287;-79
2022/11/09 01:08:43;;;;;;;13.90;6.30;;;12.70;99.90;;;;;;5070939;28;20187;-79
2022/11/09 01:11:10;;;;;;;12.37;6.50;;;12.70;99.90;;;;;;5088266;28;20277;-78
2022/11/09 01:13:39;;;;;;;12.47;7.00;;;12.70;99.90;;;;;;5070011;28;20271;-77
2022/11/09 01:16:10;;;;;;;13.13;6.73;;;12.70;99.90;;;;;;5086087;28;20194;-78
2022/11/09 01:18:38;;;;;;;10.40;7.07;;;12.70;99.90;;;;;;5066986;28;20204;-79
2022/11/09 01:21:07;;;;;;;10.73;6.97;;;12.70;99.90;;;;;;5071089;28;20193;-78
2022/11/09 01:23:36;;;;;;;11.90;6.50;;;12.70;99.90;;;;;;5070648;28;20710;-79
2022/11/09 01:26:08;;;;;;;9.87;6.73;;;12.70;99.90;;;;;;5072795;28;20290;-79
2022/11/09 01:28:35;;;;;;;11.10;6.30;;;12.70;99.90;;;;;;5070903;28;20196;-79
2022/11/09 01:31:07;;;;;;;9.63;5.27;;;12.60;99.90;;;;;;5069076;28;20385;-79
2022/11/09 01:33:35;;;;;;;9.90;6.00;;;12.70;99.90;;;;;;5072258;28;20233;-78
2022/11/09 01:36:03;;;;;;;9.40;5.83;;;12.70;99.90;;;;;;5071722;28;20193;-79
2022/11/09 01:38:31;;;;;;;10.53;6.93;;;12.70;99.90;;;;;;5072072;28;20749;-80
2022/11/09 01:40:59;;;;;;;10.40;6.57;;;12.70;99.90;;;;;;5072376;28;20250;-78
2022/11/09 01:43:27;;;;;;;10.23;6.57;;;12.60;99.90;;;;;;5104721;28;20219;-79
2022/11/09 01:45:59;;;;;;;12.83;7.53;;;12.60;99.90;;;;;;5071704;28;20221;-78
2022/11/09 01:48:37;;;;;;;11.47;6.87;;;12.60;99.90;;;;;;5071343;28;20258;-79
2022/11/09 01:51:08;;;;;;;10.60;6.27;;;12.60;99.90;;;;;;5070000;28;20692;-79
2022/11/09 01:53:40;;;;;;;9.17;5.80;;;12.60;99.90;;;;;;5073210;28;20620;-78
2022/11/09 01:56:11;;;;;;;9.67;5.77;;;12.60;99.90;;;;;;5070586;28;20194;-80
2022/11/09 01:58:45;;;;;;;10.77;6.67;;;12.60;99.90;;;;;;5101934;28;20233;-79
2022/11/09 02:01:14;;;;;;;10.70;5.93;;;12.60;99.90;;;;;;5084392;28;20655;-79
2022/11/09 02:03:46;;;;;;;10.37;5.60;;;12.60;99.90;;;;;;5061132;28;20324;-79
2022/11/09 02:06:18;;;;;;;9.57;6.00;;;12.60;99.90;;;;;;5103541;28;20318;-78
2022/11/09 02:08:49;;;;;;;13.07;6.73;;;12.70;99.90;;;;;;5072414;28;20200;-79
2022/11/09 02:11:18;;;;;;;10.10;6.30;;;12.60;99.90;;;;;;5085411;28;20857;-79
2022/11/09 02:13:49;;;;;;;10.00;6.07;;;12.70;99.90;;;;;;5068027;28;20241;-79
2022/11/09 02:16:18;;;;;;;10.80;6.67;;;12.70;99.90;;;;;;5069699;28;20205;-78
2022/11/09 02:18:51;;;;;;;7.57;5.53;;;12.70;99.90;;;;;;5070458;28;20681;-79
2022/11/09 02:21:20;;;;;;;9.90;5.60;;;12.70;99.90;;;;;;5067154;28;20200;-78
2022/11/09 02:23:47;;;;;;;11.97;6.57;;;12.70;99.90;;;;;;5070663;28;20193;-79
2022/11/09 02:26:19;;;;;;;10.57;6.70;;;12.70;99.90;;;;;;5080800;28;20193;-78
2022/11/09 02:28:48;;;;;;;7.80;5.30;;;12.70;99.90;;;;;;5070811;28;20190;-79
2022/11/09 02:31:17;;;;;;;12.10;5.83;;;12.70;99.90;;;;;;5066655;28;20244;-79
2022/11/09 02:33:54;;;;;;;15.97;6.80;;;12.70;99.90;;;;;;5065275;28;20220;-78
2022/11/09 02:36:23;;;;;;;10.53;6.33;;;12.70;99.90;;;;;;5067511;28;20213;-78
2022/11/09 02:38:54;;;;;;;11.43;6.50;;;12.70;99.90;;;;;;5086119;28;20232;-79
2022/11/09 02:41:23;;;;;;;8.60;5.67;;;12.70;99.90;;;;;;5066536;28;20576;-79
2022/11/09 02:43:52;;;;;;;12.43;6.53;;;12.60;99.90;;;;;;5069071;28;20201;-78
2022/11/09 02:46:25;;;;;;;13.27;7.00;;;12.60;99.90;;;;;;5069419;28;20198;-79
2022/11/09 02:48:52;;;;;;;13.13;6.40;;;12.60;99.90;;;;;;5068761;28;20201;-80
2022/11/09 02:51:19;;;;;;;11.27;6.60;;;12.60;99.90;;;;;;5071983;28;20201;-79
2022/11/09 02:53:48;;;;;;;10.97;6.23;;;12.60;99.90;;;;;;5069570;28;20202;-78
2022/11/09 02:56:15;;;;;;;9.40;5.53;;;12.60;99.90;;;;;;5085397;28;20202;-77
2022/11/09 02:58:42;;;;;;;12.70;6.90;;;12.60;99.90;;;;;;5068481;28;20373;-78
2022/11/09 03:01:09;;;;;;;10.87;6.43;;;12.60;99.90;;;;;;5084998;28;20232;-79
2022/11/09 03:03:36;;;;;;;10.53;6.20;;;12.60;99.90;;;;;;5078191;28;20225;-79
2022/11/09 03:06:04;;;;;;;10.07;6.17;;;12.60;99.90;;;;;;5068508;28;20733;-80
2022/11/09 03:08:32;;;;;;;9.40;6.20;;;12.60;99.90;;;;;;5070671;28;20661;-81
2022/11/09 03:11:02;;;;;;;10.30;5.90;;;12.60;99.90;;;;;;5068858;28;20197;-79
2022/11/09 03:13:29;;;;;;;12.07;6.90;;;12.60;99.90;;;;;;5066772;28;20193;-79
2022/11/09 03:15:56;;;;;;;9.00;5.90;;;12.60;99.90;;;;;;5065605;28;20201;-79
2022/11/09 03:18:23;;;;;;;10.13;6.40;;;12.60;99.90;;;;;;5070577;28;20599;-80
2022/11/09 03:20:50;;;;;;;13.33;6.77;;;12.60;99.90;;;;;;5070729;28;20373;-78
2022/11/09 03:23:17;;;;;;;11.67;6.10;;;12.50;99.90;;;;;;5068626;28;20309;-79
2022/11/09 03:25:44;;;;;;;12.17;7.07;;;12.50;99.90;;;;;;5071478;28;20301;-80
2022/11/09 03:28:13;;;;;;;12.03;6.90;;;12.50;99.90;;;;;;5068325;28;20281;-79
2022/11/09 03:30:41;;;;;;;8.73;5.60;;;12.50;99.90;;;;;;5096947;28;20224;-79
2022/11/09 03:33:09;;;;;;;7.97;5.70;;;12.50;99.90;;;;;;5065359;28;20699;-79
2022/11/09 03:35:39;;;;;;;12.97;5.80;;;12.50;99.90;;;;;;5069381;28;20233;-80
2022/11/09 03:38:07;;;;;;;13.03;7.33;;;12.50;99.90;;;;;;5068937;28;20726;-80
2022/11/09 03:40:44;;;;;;;14.30;6.83;;;12.50;99.90;;;;;;5068867;28;20202;-78
2022/11/09 03:43:13;;;;;;;9.67;6.53;;;12.50;99.90;;;;;;5097334;28;20201;-78
2022/11/09 03:45:40;;;;;;;13.23;7.03;;;12.50;99.90;;;;;;5069846;28;20200;-79
2022/11/09 03:48:08;;;;;;;14.37;7.27;;;12.50;99.90;;;;;;5102374;28;20693;-79
2022/11/09 03:50:39;;;;;;;14.13;7.30;;;12.50;99.90;;;;;;5084618;28;20225;-78
2022/11/09 03:53:07;;;;;;;9.63;6.23;;;12.40;99.90;;;;;;5070656;28;20195;-78
2022/11/09 03:55:34;;;;;;;11.20;7.20;;;12.40;99.90;;;;;;5070354;28;20198;-78
2022/11/09 03:58:03;;;;;;;13.93;7.07;;;12.40;99.90;;;;;;5067434;28;20324;-79
2022/11/09 04:00:32;;;;;;;12.30;7.47;;;12.40;99.90;;;;;;5069493;28;20190;-78
2022/11/09 04:03:00;;;;;;;11.63;7.17;;;12.40;99.90;;;;;;5067464;28;20225;-78
2022/11/09 04:05:27;;;;;;;10.13;6.37;;;12.30;99.90;;;;;;5068748;28;20268;-78
2022/11/09 04:07:55;;;;;;;12.07;7.03;;;12.30;99.90;;;;;;5070638;28;20264;-77
2022/11/09 04:10:24;;;;;;;13.73;7.20;;;12.30;99.90;;;;;;5077891;28;20285;-79
2022/11/09 04:12:51;;;;;;;9.50;6.37;;;12.30;99.90;;;;;;5066869;28;20213;-78
2022/11/09 04:15:18;;;;;;;13.43;7.30;;;12.30;99.90;;;;;;5068639;28;20197;-79
2022/11/09 04:17:54;;;;;;;14.77;7.33;;;12.30;99.90;;;;;;5070246;28;20615;-79
2022/11/09 04:20:21;;;;;;;11.70;6.97;;;12.30;99.90;;;;;;5068458;28;20192;-79
2022/11/09 04:22:54;;;;;;;9.77;6.20;;;12.30;99.90;;;;;;5070455;28;20731;-78
2022/11/09 04:25:21;;;;;;;13.57;7.90;;;12.30;99.90;;;;;;5069992;28;20197;-79
2022/11/09 04:27:51;;;;;;;13.97;7.60;;;12.30;99.90;;;;;;5069097;28;20197;-79
2022/11/09 04:30:18;;;;;;;14.03;7.83;;;12.30;99.90;;;;;;5069684;28;20883;-78
2022/11/09 04:32:46;;;;;;;13.97;7.87;;;12.30;99.90;;;;;;5068795;28;20228;-79
2022/11/09 04:35:13;;;;;;;13.17;8.00;;;12.30;99.90;;;;;;5070155;28;20651;-79
2022/11/09 04:37:40;;;;;;;20.53;8.10;;;12.30;99.90;;;;;;5074884;28;20293;-78
2022/11/09 04:40:09;;;;;;;11.43;7.33;;;12.30;99.90;;;;;;5065975;28;20202;-77
2022/11/09 04:42:37;;;;;;;12.03;7.07;;;12.30;99.90;;;;;;5068430;28;20186;-79
2022/11/09 04:45:05;;;;;;;12.57;7.20;;;12.30;99.90;;;;;;5070924;28;20541;-79
2022/11/09 04:47:32;;;;;;;10.60;6.70;;;12.30;99.90;;;;;;5070932;28;20256;-77
2022/11/09 04:50:01;;;;;;;16.60;8.07;;;12.30;99.90;;;;;;5073217;28;20668;-78
2022/11/09 04:52:27;;;;;;;15.97;7.70;;;12.30;99.90;;;;;;5073244;28;20272;-76
2022/11/09 04:54:54;;;;;;;13.57;8.03;;;12.30;99.90;;;;;;5071633;28;20224;-78
2022/11/09 04:57:21;;;;;;;15.03;8.43;;;12.30;99.90;;;;;;5075211;28;20292;-78
2022/11/09 04:59:48;;;;;;;18.20;8.73;;;12.30;99.90;;;;;;5072752;28;20213;-78
2022/11/09 05:02:16;;;;;;;14.57;8.43;;;12.30;99.90;;;;;;5069826;28;20267;-79
2022/11/09 05:04:43;;;;;;;14.37;7.40;;;12.20;99.90;;;;;;5075606;28;20312;-79
2022/11/09 05:07:11;;;;;;;11.30;7.47;;;12.20;99.90;;;;;;5070507;28;20254;-79
2022/11/09 05:09:41;;;;;;;15.80;8.00;;;12.20;99.90;;;;;;5073700;28;20632;-79
2022/11/09 05:12:08;;;;;;;18.63;8.27;;;12.20;99.90;;;;;;5079912;28;20199;-78
2022/11/09 05:14:36;;;;;;;14.27;8.03;;;12.20;99.90;;;;;;5072100;28;20225;-79
2022/11/09 05:17:03;;;;;;;13.37;7.73;;;12.20;99.90;;;;;;5070931;28;20284;-79
2022/11/09 05:19:32;;;;;;;12.87;7.93;;;12.20;99.90;;;;;;5070576;28;20428;-81
2022/11/09 05:23:57;;;;;;;15.90;8.40;;;12.20;99.90;;;;;;5069330;28;20610;-78
2022/11/09 05:24:47;;;;;;;15.90;8.80;;;12.10;99.90;;;;;;5071094;28;20270;-79
2022/11/09 05:27:14;;;;;;;13.33;7.50;;;12.10;99.90;;;;;;5071450;28;20306;-78
2022/11/09 05:29:41;;;;;;;12.50;8.07;;;12.10;99.90;;;;;;5073420;28;20190;-79
2022/11/09 05:32:08;;;;;;;18.13;8.83;;;12.10;99.90;;;;;;5069565;28;20270;-80
2022/11/09 05:34:35;;;;;;;18.53;8.47;;;12.00;99.90;;;;;;5073469;28;20193;-80
2022/11/09 05:37:02;;;;;;;13.43;7.23;;;12.00;99.90;;;;;;5072568;28;20225;-78
2022/11/09 05:39:29;;;;;;;12.93;7.10;;;12.00;99.90;;;;;;5071852;28;20704;-77
2022/11/09 05:41:58;;;;;;;14.57;8.67;;;12.00;99.90;;;;;;5069430;28;20185;-79
2022/11/09 05:44:25;;;;;;;11.73;7.40;;;12.00;99.90;;;;;;5068609;28;20470;-80
2022/11/09 05:46:52;;;;;;;14.40;7.93;;;12.00;99.90;;;;;;5082105;28;20243;-80
2022/11/09 05:49:19;;;;;;;15.50;8.40;;;12.00;99.90;;;;;;5071833;28;20221;-79
2022/11/09 05:51:46;;;;;;;14.17;8.33;;;12.00;99.90;;;;;;5071908;28;20201;-80
2022/11/09 05:54:13;;;;;;;17.33;9.37;;;12.10;99.90;;;;;;5071268;28;20664;-81
2022/11/09 05:56:40;;;;;;;11.90;8.37;;;12.10;99.90;;;;;;5070457;28;20242;-78
2022/11/09 05:59:08;;;;;;;17.27;9.23;;;12.10;99.90;;;;;;5070744;28;20205;-76
2022/11/09 06:01:35;;;;;;;16.57;9.37;;;12.00;99.90;;;;;;5073016;28;20276;-79
2022/11/09 06:04:02;;;;;;;14.63;9.23;;;12.00;99.90;;;;;;5086140;28;20235;-79
2022/11/09 06:06:29;;;;;;;20.33;9.90;;;12.00;99.90;;;;;;5070015;28;20207;-79
2022/11/09 06:08:56;;;;;;;15.50;9.33;;;12.00;99.90;;;;;;5072810;28;20220;-79
2022/11/09 06:11:23;;;;;;;19.90;10.33;;;12.00;99.90;;;;;;5071347;28;20665;-79
2022/11/09 06:13:51;;;;;;;17.77;9.97;;;12.00;99.90;;;;;;5070761;28;20197;-78
2022/11/09 06:16:20;;;;;;;16.40;10.10;;;11.90;99.90;;;;;;5069936;28;20284;-79
2022/11/09 06:18:47;;;;;;;17.43;9.70;;;11.90;99.90;;;;;;5071628;28;20254;-78
2022/11/09 06:21:14;;;;;;;14.73;8.70;;;11.90;99.90;;;;;;5072377;28;20285;-77
2022/11/09 06:23:41;;;;;;;15.80;9.50;;;11.90;99.90;;;;;;5071770;28;20671;-79
2022/11/09 06:26:09;;;;;;;16.87;9.37;;;11.90;99.90;;;;;;5071827;28;20189;-78
2022/11/09 06:28:37;;;;;;;13.23;8.93;;;11.90;99.90;;;;;;5070264;28;20282;-78
2022/11/09 06:31:07;;;;;;;13.37;8.27;;;11.90;99.90;;;;;;5067408;28;20249;-78
2022/11/09 06:33:36;;;;;;;11.67;7.50;;;11.90;99.90;;;;;;5068700;28;20247;-79
2022/11/09 06:36:04;;;;;;;13.80;8.80;;;12.00;99.90;;;;;;5073931;28;20238;-79
2022/11/09 06:38:34;;;;;;;18.13;9.40;;;12.00;99.90;;;;;;5069378;28;20273;-78
2022/11/09 06:41:01;;;;;;;14.83;9.23;;;12.00;99.90;;;;;;5070964;28;20200;-79
2022/11/09 06:43:28;;;;;;;15.20;8.23;;;12.00;99.90;;;;;;5071045;28;20234;-78
2022/11/09 06:45:56;;;;;;;13.27;7.73;;;12.00;99.90;;;;;;5069346;28;20201;-78
2022/11/09 06:48:23;;;;;;;16.00;8.77;;;12.10;99.90;;;;;;5071396;28;20218;-78
2022/11/09 06:50:52;;;;;;;13.00;7.77;;;12.10;99.90;;;;;;5068622;28;20205;-78
2022/11/09 06:53:19;;;;;;;18.80;9.30;;;12.10;99.90;;;;;;5070800;28;20718;-78
2022/11/09 06:55:47;;;;;;;18.33;10.83;;;12.10;99.90;;;;;;5068219;28;20310;-79
2022/11/09 06:58:15;;;;;;;19.67;10.60;;;12.10;99.90;;;;;;5069204;28;20209;-78
2022/11/09 07:00:43;;;;;;;13.60;8.33;;;12.10;99.90;;;;;;5079893;28;20283;-79
2022/11/09 07:03:14;;;;;;;14.00;8.83;;;12.00;99.90;;;;;;5068737;28;20221;-78
2022/11/09 07:05:43;;;;;;;17.57;10.20;;;12.00;99.90;;;;;;5063021;28;20571;-79
2022/11/09 07:08:13;;;;;;;20.73;11.00;;;12.30;99.90;;;;;;5059740;28;20201;-79
2022/11/09 07:10:40;;;;;;;16.07;9.23;;;12.00;99.90;;;;;;5076710;28;20194;-79
2022/11/09 07:13:08;;;;;;;18.47;8.57;;;12.00;99.90;;;;;;5079762;28;20197;-79
2022/11/09 07:15:36;;;;;;;17.80;9.03;;;12.00;99.90;;;;;;5062540;28;20223;-78
2022/11/09 07:18:04;;;;;;;16.23;9.77;;;12.00;99.90;;;;;;5062599;28;20193;-79
2022/11/09 07:20:32;;;;;;;15.70;9.13;;;12.00;99.90;;;;;;5083285;28;20205;-79
2022/11/09 07:22:59;;;;;;;12.47;8.27;;;12.00;99.90;;;;;;5066408;28;20232;-79
2022/11/09 07:25:28;;;;;;;18.87;9.33;;;12.00;99.90;;;;;;5067203;28;20315;-78
2022/11/09 07:28:24;;;;;;;22.23;11.13;;;12.10;99.90;;;;;;5063729;28;20204;-77
2022/11/09 07:31:00;;;;;;;20.43;11.47;;;12.10;99.90;;;;;;5061640;28;20237;-79
2022/11/09 07:33:29;;;;;;;19.57;10.23;;;12.10;99.90;;;;;;5064520;28;20193;-79
2022/11/09 07:35:58;;;;;;;15.33;8.97;;;12.00;99.90;;;;;;5065656;28;20189;-78
2022/11/09 07:38:25;;;;;;;15.43;8.53;;;12.00;99.90;;;;;;5063971;28;20604;-77
2022/11/09 07:40:54;;;;;;;17.13;9.70;;;12.00;99.90;;;;;;5067516;28;20205;-77
2022/11/09 07:43:21;;;;;;;16.50;9.30;;;11.90;99.90;;;;;;5097553;28;20311;-78
2022/11/09 07:45:53;;;;;;;17.73;9.90;;;12.10;99.90;;;;;;5064041;28;20213;-79
2022/11/09 07:48:20;;;;;;;16.60;11.03;;;12.10;99.90;;;;;;5064079;28;20193;-77
2022/11/09 07:50:47;;;;;;;25.43;11.50;;;12.10;99.90;;;;;;5066509;28;20220;-79
2022/11/09 07:53:15;;;;;;;19.97;10.40;;;12.00;99.90;;;;;;5066353;28;20286;-79
2022/11/09 07:55:43;;;;;;;18.17;10.03;;;12.10;99.90;;;;;;5069787;28;20283;-78
2022/11/09 07:58:13;;;;;;;21.07;11.30;;;12.10;99.90;;;;;;5082400;28;20552;-78
2022/11/09 08:00:41;;;;;;;25.60;11.97;;;12.10;99.90;;;;;;5064308;28;20569;-79
2022/11/09 08:03:09;;;;;;;16.57;10.13;;;12.10;99.90;;;;;;5072008;28;20236;-79
2022/11/09 08:05:37;;;;;;;22.20;11.30;;;12.10;99.90;;;;;;5064283;28;20201;-79
2022/11/09 08:08:06;;;;;;;16.83;9.87;;;12.10;99.90;;;;;;5064185;28;20789;-78
2022/11/09 08:10:35;;;;;;;17.40;9.97;;;12.10;99.90;;;;;;5066139;28;20218;-79
2022/11/09 08:13:05;;;;;;;17.13;9.47;;;12.20;99.90;;;;;;5066140;28;20196;-80
2022/11/09 08:15:35;;;;;;;13.87;7.93;;;12.20;99.90;;;;;;5061959;28;20206;-79
2022/11/09 08:18:08;;;;;;;15.73;8.73;;;12.30;99.90;;;;;;5065772;28;20189;-78
2022/11/09 08:20:35;;;;;;;24.77;11.20;;;12.40;99.90;;;;;;5100154;28;20220;-78
2022/11/09 08:23:02;;;;;;;18.03;10.63;;;12.50;99.90;;;;;;5071012;28;20204;-79
2022/11/09 08:25:31;;;;;;;21.13;10.17;;;12.60;99.90;;;;;;5070613;28;20257;-78
2022/11/09 08:27:58;;;;;;;21.37;11.00;;;12.70;99.90;;;;;;5070652;28;20209;-79
2022/11/09 08:30:26;;;;;;;21.33;10.70;;;12.70;99.90;;;;;;5066073;28;20223;-78
2022/11/09 08:32:54;;;;;;;24.37;11.77;;;12.80;99.90;;;;;;5069958;28;20225;-80
2022/11/09 08:35:27;;;;;;;20.70;10.50;;;12.80;99.90;;;;;;5070829;28;20285;-79
2022/11/09 08:37:54;;;;;;;18.87;9.50;;;12.90;99.90;;;;;;5066954;28;20310;-77
2022/11/09 08:40:23;;;;;;;17.57;10.83;;;12.90;99.90;;;;;;5071085;28;20583;-79
2022/11/09 08:42:51;;;;;;;17.87;9.93;;;13.00;99.90;;;;;;5070650;28;20237;-78
2022/11/09 08:45:19;;;;;;;21.80;11.23;;;13.00;99.90;;;;;;5069958;28;20226;-78
2022/11/09 08:47:46;;;;;;;19.03;10.93;;;13.00;99.90;;;;;;5066901;28;20647;-78
2022/11/09 08:50:16;;;;;;;18.20;10.30;;;13.10;99.90;;;;;;5101325;28;20199;-77
2022/11/09 08:52:43;;;;;;;19.50;11.20;;;13.10;99.90;;;;;;5065518;28;20258;-79
2022/11/09 08:55:10;;;;;;;18.10;10.63;;;13.10;99.90;;;;;;5067057;28;20198;-78
2022/11/09 08:57:37;;;;;;;18.77;10.57;;;13.10;99.90;;;;;;5069834;28;20194;-78
2022/11/09 09:00:05;;;;;;;22.27;10.43;;;13.20;99.90;;;;;;5068658;28;20238;-78
2022/11/09 09:02:33;;;;;;;18.27;10.37;;;13.10;99.90;;;;;;5097413;28;20987;-78
2022/11/09 09:05:00;;;;;;;19.27;10.30;;;13.20;99.90;;;;;;5068627;28;20272;-79
2022/11/09 09:07:30;;;;;;;24.80;11.00;;;13.20;99.90;;;;;;5066998;28;20205;-80
2022/11/09 09:09:57;;;;;;;13.60;9.03;;;13.30;99.90;;;;;;5068807;28;20665;-78
2022/11/09 09:12:25;;;;;;;13.70;8.73;;;13.40;99.90;;;;;;5069388;28;20209;-78
2022/11/09 09:14:52;;;;;;;12.60;8.50;;;13.50;99.90;;;;;;5067053;28;20317;-77
2022/11/09 09:17:19;;;;;;;15.90;8.47;;;13.70;99.90;;;;;;5069186;28;20629;-78
2022/11/09 09:19:45;;;;;;;18.00;10.03;;;13.80;99.90;;;;;;5070332;28;20207;-77
2022/11/09 09:22:13;;;;;;;15.00;9.57;;;13.90;99.90;;;;;;5069648;28;20200;-78
2022/11/09 09:24:41;;;;;;;19.27;10.00;;;14.00;99.90;;;;;;5070766;28;20203;-78
2022/11/09 09:27:08;;;;;;;16.67;9.63;;;14.00;99.90;;;;;;5070540;28;20720;-79
2022/11/09 09:29:35;;;;;;;22.57;10.13;;;14.00;99.90;;;;;;5067200;28;20199;-79
2022/11/09 09:32:02;;;;;;;25.40;9.67;;;14.00;99.90;;;;;;5068433;28;20203;-78
2022/11/09 09:34:29;;;;;;;17.67;9.13;;;14.00;99.90;;;;;;5068482;28;20661;-79
2022/11/09 09:36:56;;;;;;;17.93;9.53;;;14.10;99.90;;;;;;5069871;28;20195;-76
2022/11/09 09:39:26;;;;;;;17.23;9.60;;;14.10;99.90;;;;;;5073699;28;20305;-79
2022/11/09 09:41:57;;;;;;;15.87;9.70;;;14.30;99.90;;;;;;5081568;28;20537;-78
2022/11/09 09:44:31;;;;;;;17.37;9.10;;;14.40;99.90;;;;;;5067474;28;20199;-78
2022/11/09 09:47:09;;;;;;;15.53;8.87;;;14.30;99.90;;;;;;5067888;28;20204;-79
2022/11/09 09:49:39;;;;;;;15.53;8.90;;;14.30;99.90;;;;;;5067766;28;20194;-78
2022/11/09 09:52:17;;;;;;;15.20;9.30;;;14.20;99.90;;;;;;5067702;28;20205;-78
2022/11/09 09:54:52;;;;;;;16.67;9.00;;;14.20;99.90;;;;;;5067682;28;20205;-79
2022/11/09 09:57:23;;;;;;;13.20;8.43;;;14.20;99.90;;;;;;5097599;28;20285;-79
2022/11/09 09:59:54;;;;;;;17.50;9.27;;;14.10;99.90;;;;;;5066616;28;20222;-79
2022/11/09 10:02:24;;;;;;;18.07;9.27;;;14.10;99.90;;;;;;5066927;28;20294;-78
2022/11/09 10:04:52;;;;;;;19.47;9.67;;;14.10;99.90;;;;;;5067754;28;20213;-79
2022/11/09 10:07:28;;;;;;;19.47;10.33;;;14.20;99.90;;;;;;5065822;28;20193;-78
2022/11/09 10:10:16;;;;;;;16.90;9.80;;;14.20;99.90;;;;;;5064513;28;20185;-78
2022/11/09 10:13:00;;;;;;;17.80;10.20;;;14.10;99.90;;;;;;5069699;28;20201;-80
2022/11/09 10:15:31;;;;;;;17.37;9.03;;;14.00;99.90;;;;;;5067435;28;20192;-79
2022/11/09 10:18:14;;;;;;;11.60;7.67;;;14.00;99.90;;;;;;5068340;28;20192;-79
2022/11/09 10:20:59;;;;;;;12.90;7.87;;;14.00;99.90;;;;;;5067540;28;20828;-78
2022/11/09 10:23:42;;;;;;;13.10;8.50;;;14.10;99.90;;;;;;5067520;28;20195;-79
2022/11/09 10:26:17;;;;;;;15.60;8.70;;;14.20;99.90;;;;;;5068478;28;20300;-79
2022/11/09 10:28:55;;;;;;;18.27;9.90;;;14.20;99.90;;;;;;5066847;28;20277;-78
2022/11/09 10:31:23;;;;;;;16.97;9.87;;;14.20;99.90;;;;;;5065103;28;20276;-80
2022/11/09 10:33:56;;;;;;;18.57;10.00;;;14.20;99.90;;;;;;5065542;28;20257;-76
2022/11/09 10:36:28;;;;;;;14.97;8.67;;;14.20;99.90;;;;;;5067711;28;20208;-79
2022/11/09 10:39:00;;;;;;;17.30;9.30;;;14.20;99.90;;;;;;5066658;28;20196;-80
2022/11/09 10:41:46;;;;;;;15.63;9.30;;;14.20;99.90;;;;;;5065393;28;20198;-78
2022/11/09 10:44:34;;;;;;;18.30;9.23;;;14.20;99.90;;;;;;5068663;28;20235;-78
2022/11/09 10:47:21;;;;;;;17.70;9.57;;;14.20;99.90;;;;;;5068711;28;20272;-79
2022/11/09 10:50:26;;;;;;;16.27;9.93;;;14.30;99.90;;;;;;5067941;28;20290;-80
2022/11/09 10:53:20;;;;;;;16.67;9.03;;;14.30;99.90;;;;;;5070651;28;20208;-80
2022/11/09 10:56:16;;;;;;;19.30;8.87;;;14.30;99.90;;;;;;5067464;28;20682;-80
2022/11/09 10:59:02;;;;;;;25.33;10.90;;;14.30;99.90;;;;;;5067526;28;20207;-78
2022/11/09 11:01:49;;;;;;;17.93;10.20;;;14.30;99.90;;;;;;5065092;28;20675;-80
2022/11/09 11:04:35;;;;;;;19.00;10.43;;;14.20;99.90;;;;;;5066355;28;20207;-78
2022/11/09 11:07:22;;;;;;;20.53;9.93;;;14.20;99.90;;;;;;5065306;28;20198;-78
2022/11/09 11:10:18;;;;;;;19.87;10.10;;;14.10;99.90;;;;;;5066708;28;20200;-79
2022/11/09 11:13:24;;;;;;;21.57;11.30;;;14.10;99.90;;;;;;5063925;28;20204;-78
2022/11/09 11:16:15;;;;;;;19.30;10.90;;;14.00;99.90;;;;;;5064452;28;20250;-80
2022/11/09 11:19:04;;;;;;;20.83;11.20;;;14.00;99.90;;;;;;5067209;28;20328;-79
2022/11/09 11:22:18;;;;;;;21.13;10.87;;;13.90;99.90;;;;;;5063726;28;20219;-77
2022/11/09 11:25:17;;;;;;;19.23;10.00;;;14.00;99.90;;;;;;5066797;28;20213;-79
2022/11/09 11:28:10;;;;;;;18.83;9.13;;;13.90;99.90;;;;;;5064831;28;20304;-79
2022/11/09 11:30:56;;;;;;;17.50;10.23;;;13.90;99.90;;;;;;5067358;28;20203;-78
2022/11/09 11:33:42;;;;;;;19.97;9.93;;;13.90;99.90;;;;;;5066147;28;20211;-79
2022/11/09 11:36:40;;;;;;;18.57;9.20;;;13.90;99.90;;;;;;5067196;28;20260;-79
2022/11/09 11:39:40;;;;;;;15.53;8.80;;;13.90;99.90;;;;;;5067468;28;20250;-77
2022/11/09 11:42:56;;;;;;;15.40;9.20;;;14.00;99.90;;;;;;5067478;28;20207;-80
2022/11/09 11:45:42;;;;;;;14.87;9.53;;;13.90;99.90;;;;;;5039198;28;20252;-78
2022/11/09 11:49:16;;;;;;;18.73;9.47;;;14.00;99.90;;;;;;5067347;28;20214;-79
2022/11/09 11:52:10;;;;;;;13.73;8.20;;;14.00;99.90;;;;;;5069114;28;20339;-79
2022/11/09 11:55:13;;;;;;;15.33;9.27;;;14.00;99.90;;;;;;5070771;28;20222;-80
2022/11/09 11:58:14;;;;;;;13.67;8.70;;;14.00;99.90;;;;;;5068805;28;20229;-79
2022/11/09 12:01:07;;;;;;;15.87;8.93;;;14.00;99.90;;;;;;5070762;28;20214;-80
2022/11/09 12:04:16;;;;;;;16.70;8.60;;;14.00;99.90;;;;;;5070257;28;21166;-79
2022/11/09 12:07:19;;;;;;;12.33;7.80;;;14.00;99.90;;;;;;5071733;28;20726;-78
2022/11/09 12:10:30;;;;;;;11.70;7.67;;;14.00;99.90;;;;;;5071736;28;20222;-78
2022/11/09 12:13:37;;;;;;;15.00;8.90;;;14.00;99.90;;;;;;5069555;28;20218;-80
2022/11/09 12:16:30;;;;;;;15.13;8.80;;;14.00;99.90;;;;;;5068742;28;20251;-78
2022/11/09 12:19:34;;;;;;;22.10;9.17;;;14.70;99.90;;;;;;5070786;28;20225;-78
2022/11/09 12:22:28;;;;;;;14.60;8.37;;;14.00;99.90;;;;;;5070865;28;20283;-80
2022/11/09 12:25:21;;;;;;;13.70;7.33;;;14.00;99.90;;;;;;5069891;28;20717;-79
2022/11/09 12:28:21;;;;;;;11.43;7.53;;;14.00;99.90;;;;;;5069666;28;20266;-77
2022/11/09 12:31:17;;;;;;;11.50;7.90;;;14.00;99.90;;;;;;5068689;28;20198;-79
2022/11/09 12:34:12;;;;;;;12.70;7.50;;;14.00;99.90;;;;;;5068824;28;20559;-78
2022/11/09 12:37:01;;;;;;;9.00;6.20;;;14.00;99.90;;;;;;5068953;28;20200;-80
2022/11/09 12:39:52;;;;;;;10.93;7.50;;;14.00;99.90;;;;;;5069729;28;20261;-81
2022/11/09 12:42:44;;;;;;;13.50;6.60;;;14.00;99.90;;;;;;5070737;28;20393;-80
2022/11/09 12:45:35;;;;;;;11.93;7.07;;;14.00;99.90;;;;;;5070077;28;20196;-81
2022/11/09 12:48:24;;;;;;;10.33;6.70;;;14.00;99.90;;;;;;5071055;28;20269;-81
2022/11/09 12:51:10;;;;;;;10.33;6.07;;;14.00;99.90;;;;;;5071167;28;20203;-80
2022/11/09 12:53:57;;;;;;;12.60;7.33;;;14.00;99.90;;;;;;5069206;28;20265;-78
2022/11/09 12:56:51;;;;;;;10.40;7.03;;;14.10;99.90;;;;;;5069469;28;20282;-79
2022/11/09 12:59:46;;;;;;;8.87;5.80;;;14.00;99.90;;;;;;5069404;28;20204;-79
2022/11/09 13:02:35;;;;;;;11.20;6.97;;;14.00;99.90;;;;;;5069580;28;20229;-81
2022/11/09 13:05:30;;;;;;;6.70;5.43;;;14.00;99.90;;;;;;5070582;28;20219;-80
2022/11/09 13:08:21;;;;;;;6.43;5.30;;;14.00;99.90;;;;;;5069555;28;20226;-80